Time;durP1;ratioP1;P1;durP2;ratioP2;P2;SDS_P1;SDS_P2;PMS_P1;PMS_P2;Temp;Humidity;BMP_temperature;BMP_pressure;BME280_temperature;BME280_humidity;BME280_pressure;Samples;Min_cycle;Max_cycle;Signal;HPM_P1;HPM_P2
2021/11/05 00:00:06;;;;;;;3.95;0.50;;;;;;;9.12;100.00;101595.50;5071088;28;20045;-32
2021/11/05 00:02:39;;;;;;;2.72;0.43;;;;;;;9.12;100.00;101593.56;5071031;28;20532;-32
2021/11/05 00:05:09;;;;;;;5.22;0.50;;;;;;;9.13;100.00;101603.56;5070253;28;20041;-30
2021/11/05 00:07:37;;;;;;;10.80;0.68;;;;;;;9.13;100.00;101598.00;5069956;28;20405;-30
2021/11/05 00:10:06;;;;;;;4.72;0.90;;;;;;;9.13;100.00;101600.78;5070512;28;20073;-30
2021/11/05 00:12:35;;;;;;;8.52;1.58;;;;;;;9.14;100.00;101602.47;5070779;28;20051;-30
2021/11/05 00:15:04;;;;;;;6.07;1.08;;;;;;;9.12;100.00;101596.34;5070664;28;20056;-31
2021/11/05 00:17:32;;;;;;;4.20;0.60;;;;;;;9.11;100.00;101593.81;5070027;28;20131;-31
2021/11/05 00:20:00;;;;;;;8.63;0.90;;;;;;;9.11;100.00;101603.00;5070593;28;20057;-30
2021/11/05 00:22:27;;;;;;;6.60;0.80;;;;;;;9.12;100.00;101607.47;5070659;28;20045;-32
2021/11/05 00:24:55;;;;;;;5.47;0.70;;;;;;;9.11;100.00;101602.16;5070447;28;20059;-32
2021/11/05 00:27:23;;;;;;;4.38;0.65;;;;;;;9.11;100.00;101616.94;5070271;28;20508;-31
2021/11/05 00:29:52;;;;;;;7.50;1.42;;;;;;;9.10;100.00;101612.47;5070962;28;20051;-31
2021/11/05 00:32:19;;;;;;;5.95;0.70;;;;;;;9.08;100.00;101617.47;5069787;28;20175;-32
2021/11/05 00:34:47;;;;;;;5.18;0.65;;;;;;;9.06;100.00;101616.91;5059899;28;20527;-31
2021/11/05 00:37:15;;;;;;;8.13;1.00;;;;;;;9.05;100.00;101622.72;5070214;28;20490;-30
2021/11/05 00:39:43;;;;;;;9.32;0.93;;;;;;;9.02;100.00;101618.53;5070126;28;20050;-31
2021/11/05 00:42:11;;;;;;;8.77;0.95;;;;;;;9.02;100.00;101629.69;5070417;28;20048;-31
2021/11/05 00:44:39;;;;;;;4.72;0.80;;;;;;;9.01;100.00;101621.59;5072844;28;20049;-33
2021/11/05 00:47:11;;;;;;;6.35;0.93;;;;;;;9.00;100.00;101631.88;5073715;28;20055;-32
2021/11/05 00:49:39;;;;;;;11.73;1.25;;;;;;;8.99;100.00;101627.47;5074473;28;20075;-31
2021/11/05 00:52:07;;;;;;;5.80;0.88;;;;;;;8.97;100.00;101632.47;5073869;28;20094;-31
2021/11/05 00:54:35;;;;;;;9.50;0.80;;;;;;;8.96;100.00;101628.00;5074063;28;20065;-32
2021/11/05 00:57:03;;;;;;;3.83;0.60;;;;;;;8.93;100.00;101628.53;5073878;28;20052;-31
2021/11/05 00:59:31;;;;;;;6.55;0.77;;;;;;;8.91;100.00;101628.78;5073423;28;20052;-30
2021/11/05 01:01:59;;;;;;;7.32;0.80;;;;;;;8.89;100.00;101622.66;5073863;28;20040;-30
2021/11/05 01:04:28;;;;;;;6.25;1.00;;;;;;;8.89;100.00;101627.38;5074075;28;20049;-31
2021/11/05 01:06:56;;;;;;;9.70;1.17;;;;;;;8.90;100.00;101632.69;5073473;28;20052;-31
2021/11/05 01:09:24;;;;;;;8.15;1.05;;;;;;;8.91;100.00;101627.97;5073715;28;20052;-31
2021/11/05 01:11:52;;;;;;;9.25;1.00;;;;;;;8.89;100.00;101635.72;5073750;28;20090;-32
2021/11/05 01:14:21;;;;;;;7.63;1.00;;;;;;;8.92;100.00;101640.78;5071651;28;20134;-32
2021/11/05 01:16:48;;;;;;;6.57;0.95;;;;;;;8.91;100.00;101639.94;5073850;28;20048;-31
2021/11/05 01:19:16;;;;;;;7.00;1.00;;;;;;;8.93;100.00;101639.66;5072567;28;20041;-32
2021/11/05 01:21:46;;;;;;;8.98;1.20;;;;;;;8.94;100.00;101644.13;5073265;28;20555;-31
2021/11/05 01:24:13;;;;;;;10.85;1.10;;;;;;;8.94;100.00;101647.75;5073411;28;20060;-30
2021/11/05 01:26:41;;;;;;;7.80;0.90;;;;;;;8.95;100.00;101655.00;5072219;28;20049;-29
2021/11/05 01:29:09;;;;;;;6.65;0.98;;;;;;;8.93;100.00;101650.78;5072962;28;20048;-33
2021/11/05 01:31:37;;;;;;;7.35;0.73;;;;;;;8.92;100.00;101654.69;5073758;28;20065;-30
2021/11/05 01:34:06;;;;;;;5.43;0.60;;;;;;;8.90;100.00;101648.53;5073133;28;20048;-31
2021/11/05 01:36:33;;;;;;;5.97;0.63;;;;;;;8.89;100.00;101658.00;5072987;28;20063;-30
2021/11/05 01:39:03;;;;;;;9.70;0.93;;;;;;;8.87;100.00;101646.28;5073153;28;20049;-30
2021/11/05 01:41:31;;;;;;;11.45;1.20;;;;;;;8.88;100.00;101650.75;5072014;28;20047;-30
2021/11/05 01:43:59;;;;;;;3.40;0.50;;;;;;;8.86;100.00;101652.97;5073211;28;20558;-33
2021/11/05 01:46:27;;;;;;;4.78;0.73;;;;;;;8.86;100.00;101658.53;5073052;28;20052;-31
2021/11/05 01:48:54;;;;;;;5.22;0.60;;;;;;;8.86;100.00;101653.81;5072760;28;20048;-30
2021/11/05 01:51:22;;;;;;;4.65;0.80;;;;;;;8.88;100.00;101651.59;5073012;28;20041;-31
2021/11/05 01:53:50;;;;;;;8.30;0.90;;;;;;;8.91;100.00;101650.22;5060158;28;20066;-30
2021/11/05 01:56:19;;;;;;;7.65;0.90;;;;;;;8.92;100.00;101649.97;5071490;28;20049;-30
2021/11/05 01:58:47;;;;;;;7.05;0.82;;;;;;;8.93;100.00;101657.19;5073138;28;20051;-31
2021/11/05 02:01:14;;;;;;;8.35;0.90;;;;;;;8.94;100.00;101656.09;5073047;28;20053;-30
2021/11/05 02:03:42;;;;;;;4.55;0.47;;;;;;;8.94;100.00;101660.81;5072035;28;20528;-30
2021/11/05 02:06:11;;;;;;;5.07;0.60;;;;;;;8.94;100.00;101658.03;5072764;28;20387;-30
2021/11/05 02:08:40;;;;;;;3.15;0.65;;;;;;;8.92;100.00;101651.91;5072931;28;20058;-31
2021/11/05 02:11:10;;;;;;;6.47;0.93;;;;;;;8.91;100.00;101666.91;5069003;28;20053;-30
2021/11/05 02:13:42;;;;;;;5.78;0.95;;;;;;;8.91;100.00;101669.72;5073226;28;20470;-30
2021/11/05 02:16:10;;;;;;;10.77;0.90;;;;;;;8.88;100.00;101667.44;5071559;28;20052;-30
2021/11/05 02:18:39;;;;;;;8.10;1.52;;;;;;;8.87;100.00;101672.19;5072217;28;20530;-33
2021/11/05 02:21:13;;;;;;;6.07;0.90;;;;;;;8.88;100.00;101673.03;5072533;28;20053;-32
2021/11/05 02:23:43;;;;;;;7.55;1.23;;;;;;;8.87;100.00;101679.69;5072148;28;20044;-30
2021/11/05 02:26:10;;;;;;;11.27;1.00;;;;;;;8.88;100.00;101673.03;5072517;28;20056;-31
2021/11/05 02:28:39;;;;;;;6.50;0.80;;;;;;;8.90;100.00;101680.00;5072630;28;20101;-30
2021/11/05 02:31:07;;;;;;;7.53;0.80;;;;;;;8.93;100.00;101675.84;5071394;28;20055;-30
2021/11/05 02:33:36;;;;;;;5.78;0.73;;;;;;;8.96;100.00;101683.66;5072727;28;20080;-30
2021/11/05 02:36:04;;;;;;;9.60;1.63;;;;;;;8.98;100.00;101684.25;5071977;28;20048;-30
2021/11/05 02:38:32;;;;;;;5.80;1.15;;;;;;;8.99;100.00;101697.06;5071720;28;20401;-31
2021/11/05 02:41:01;;;;;;;7.97;0.93;;;;;;;8.99;100.00;101688.69;5071965;28;20366;-34
2021/11/05 02:43:29;;;;;;;5.60;0.80;;;;;;;9.00;100.00;101682.00;5072006;28;20515;-32
2021/11/05 02:45:57;;;;;;;4.65;0.70;;;;;;;9.01;100.00;101691.19;5071368;28;20393;-30
2021/11/05 02:48:27;;;;;;;7.30;1.00;;;;;;;9.03;100.00;101698.16;5072080;28;20054;-31
2021/11/05 02:50:55;;;;;;;7.15;0.98;;;;;;;9.06;100.00;101702.38;5072116;28;20062;-31
2021/11/05 02:53:23;;;;;;;8.63;1.38;;;;;;;9.07;100.00;101698.47;5071225;28;20048;-30
2021/11/05 02:55:50;;;;;;;7.25;1.05;;;;;;;9.10;100.00;101706.28;5071698;28;20044;-31
2021/11/05 02:58:20;;;;;;;9.80;1.15;;;;;;;9.12;100.00;101696.56;5071563;28;20045;-30
2021/11/05 03:00:48;;;;;;;6.55;0.88;;;;;;;9.15;100.00;101707.16;5070973;28;20044;-32
2021/11/05 03:03:16;;;;;;;5.30;0.85;;;;;;;9.19;100.00;101702.72;5071823;28;20045;-30
2021/11/05 03:05:44;;;;;;;6.05;1.20;;;;;;;9.22;100.00;101699.41;5070914;28;20131;-30
2021/11/05 03:08:11;;;;;;;8.55;1.20;;;;;;;9.26;100.00;101702.50;5071506;28;20474;-33
2021/11/05 03:10:39;;;;;;;9.02;1.20;;;;;;;9.29;100.00;101718.66;5071365;28;20049;-32
2021/11/05 03:13:07;;;;;;;5.65;0.82;;;;;;;9.31;100.00;101716.44;5070940;28;20070;-33
2021/11/05 03:15:36;;;;;;;6.43;1.27;;;;;;;9.34;100.00;101721.47;5071702;28;20140;-30
2021/11/05 03:18:04;;;;;;;11.75;1.00;;;;;;;9.35;100.00;101716.75;5071191;28;20051;-31
2021/11/05 03:20:32;;;;;;;7.38;0.98;;;;;;;9.36;100.00;101724.00;5071095;28;20048;-31
2021/11/05 03:23:00;;;;;;;5.68;1.20;;;;;;;9.35;100.00;101725.09;5071082;28;20059;-33
2021/11/05 03:25:28;;;;;;;4.28;0.73;;;;;;;9.35;100.00;101736.25;5071438;28;20075;-34
2021/11/05 03:27:55;;;;;;;7.45;0.88;;;;;;;9.35;100.00;101731.53;5070741;28;20052;-31
2021/11/05 03:30:23;;;;;;;8.27;1.20;;;;;;;9.40;100.00;101741.81;5071510;28;20057;-30
2021/11/05 03:32:52;;;;;;;6.40;0.77;;;;;;;9.40;100.00;101741.81;5071214;28;20060;-31
2021/11/05 03:35:20;;;;;;;5.32;0.70;;;;;;;9.40;100.00;101731.53;5069948;28;20064;-33
2021/11/05 03:37:50;;;;;;;9.20;1.00;;;;;;;9.41;100.00;101747.13;5071348;28;20052;-30
2021/11/05 03:40:19;;;;;;;7.18;0.90;;;;;;;9.43;100.00;101747.72;5071285;28;20044;-30
2021/11/05 03:42:48;;;;;;;9.60;1.15;;;;;;;9.42;100.00;101751.59;5070752;28;20044;-31
2021/11/05 03:45:17;;;;;;;8.45;1.00;;;;;;;9.42;100.00;101746.03;5071063;28;20395;-32
2021/11/05 03:47:45;;;;;;;6.97;1.10;;;;;;;9.44;100.00;101746.59;5070971;28;20524;-32
2021/11/05 03:50:14;;;;;;;7.97;1.00;;;;;;;9.47;100.00;101762.78;5070421;28;20532;-31
2021/11/05 03:52:42;;;;;;;8.38;0.93;;;;;;;9.51;100.00;101763.09;5070828;28;20051;-30
2021/11/05 03:55:10;;;;;;;7.20;1.00;;;;;;;9.56;100.00;101768.69;5070511;28;20048;-30
2021/11/05 03:57:38;;;;;;;6.03;1.13;;;;;;;9.60;100.00;101769.81;5071125;28;20086;-30
2021/11/05 04:00:07;;;;;;;8.50;1.15;;;;;;;9.61;100.00;101771.47;5070734;28;20493;-30
2021/11/05 04:02:35;;;;;;;10.80;1.23;;;;;;;9.60;100.00;101772.59;5070595;28;20051;-31
2021/11/05 04:05:03;;;;;;;8.68;1.30;;;;;;;9.58;100.00;101777.63;5070419;28;20048;-31
2021/11/05 04:07:34;;;;;;;7.85;1.20;;;;;;;9.56;100.00;101779.84;5070998;28;20052;-30
2021/11/05 04:10:02;;;;;;;6.35;0.85;;;;;;;9.57;100.00;101789.88;5070234;28;20084;-30
2021/11/05 04:12:29;;;;;;;6.85;1.10;;;;;;;9.57;100.00;101793.50;5071107;28;20127;-29
2021/11/05 04:14:57;;;;;;;8.25;0.98;;;;;;;9.59;100.00;101798.81;5070456;28;20045;-30
2021/11/05 04:17:25;;;;;;;11.02;1.17;;;;;;;9.62;100.00;101801.03;5070011;28;20110;-30
2021/11/05 04:19:53;;;;;;;6.10;1.25;;;;;;;9.62;100.00;101801.88;5074099;28;20048;-30
2021/11/05 04:22:20;;;;;;;8.05;1.00;;;;;;;9.64;100.00;101808.00;5075172;28;20497;-35
2021/11/05 04:24:49;;;;;;;8.88;1.05;;;;;;;9.65;100.00;101811.63;5074071;28;20045;-34
2021/11/05 04:27:17;;;;;;;7.85;1.10;;;;;;;9.67;100.00;101815.00;5075015;28;20102;-31
2021/11/05 04:29:46;;;;;;;7.57;1.00;;;;;;;9.65;100.00;101817.22;5074601;28;20046;-30
2021/11/05 04:32:14;;;;;;;11.30;1.40;;;;;;;9.62;100.00;101821.38;5073112;28;20049;-32
2021/11/05 04:34:42;;;;;;;11.02;1.20;;;;;;;9.60;100.00;101831.94;5074392;28;20053;-33
2021/11/05 04:37:10;;;;;;;11.15;1.25;;;;;;;9.57;100.00;101826.09;5073817;28;20399;-32
2021/11/05 04:39:38;;;;;;;11.02;1.30;;;;;;;9.56;100.00;101835.56;5074366;28;20127;-32
2021/11/05 04:42:07;;;;;;;11.25;1.60;;;;;;;9.55;100.00;101836.66;5074358;28;20440;-31
2021/11/05 04:44:35;;;;;;;8.48;1.23;;;;;;;9.55;100.00;101837.50;5073716;28;20072;-32
2021/11/05 04:47:03;;;;;;;10.20;1.48;;;;;;;9.57;100.00;101849.22;5074111;28;20044;-31
2021/11/05 04:49:31;;;;;;;7.82;1.00;;;;;;;9.60;100.00;101840.31;5074117;28;20060;-34
2021/11/05 04:51:58;;;;;;;8.20;1.05;;;;;;;9.63;100.00;101848.13;5073495;28;20063;-33
2021/11/05 04:54:26;;;;;;;4.28;0.80;;;;;;;9.65;100.00;101850.66;5074292;28;20051;-33
2021/11/05 04:56:54;;;;;;;8.68;1.08;;;;;;;9.66;100.00;101855.13;5073949;28;20036;-32
2021/11/05 04:59:23;;;;;;;8.50;1.00;;;;;;;9.63;100.00;101853.72;5073333;28;20047;-34
2021/11/05 05:01:51;;;;;;;9.60;1.50;;;;;;;9.62;100.00;101862.34;5070483;28;20505;-35
2021/11/05 05:04:18;;;;;;;6.60;1.00;;;;;;;9.58;100.00;101858.44;5074389;28;20048;-31
2021/11/05 05:06:46;;;;;;;8.15;1.30;;;;;;;9.56;100.00;101863.44;5073262;28;20072;-32
2021/11/05 05:09:14;;;;;;;7.22;0.90;;;;;;;9.52;100.00;101870.63;5074049;28;20041;-30
2021/11/05 05:11:45;;;;;;;8.70;1.00;;;;;;;9.49;100.00;101874.78;5073392;28;20048;-30
2021/11/05 05:14:13;;;;;;;9.97;0.97;;;;;;;9.47;100.00;101878.94;5061763;28;20057;-31
2021/11/05 05:16:43;;;;;;;7.95;0.90;;;;;;;9.45;100.00;101882.00;5073556;28;20040;-30
2021/11/05 05:19:11;;;;;;;6.30;0.70;;;;;;;9.43;100.00;101887.00;5073631;28;20536;-31
2021/11/05 05:21:38;;;;;;;6.22;1.17;;;;;;;9.41;100.00;101888.38;5073181;28;20049;-30
2021/11/05 05:24:06;;;;;;;9.73;0.88;;;;;;;9.41;100.00;101886.41;5073595;28;20056;-31
2021/11/05 05:26:34;;;;;;;7.72;1.05;;;;;;;9.42;100.00;101890.03;5073102;28;20075;-30
2021/11/05 05:29:01;;;;;;;5.30;0.90;;;;;;;9.41;100.00;101897.56;5073252;28;20428;-33
2021/11/05 05:31:30;;;;;;;6.82;0.80;;;;;;;9.39;100.00;101890.59;5073418;28;20459;-30
2021/11/05 05:33:59;;;;;;;9.55;1.10;;;;;;;9.39;100.00;101904.53;5072784;28;20527;-33
2021/11/05 05:36:27;;;;;;;7.07;1.27;;;;;;;9.37;100.00;101904.78;5072985;28;20498;-30
2021/11/05 05:38:55;;;;;;;6.53;0.80;;;;;;;9.36;100.00;101908.69;5073176;28;20363;-33
2021/11/05 05:41:22;;;;;;;8.70;0.90;;;;;;;9.37;100.00;101904.78;5071026;28;20063;-33
2021/11/05 05:43:50;;;;;;;8.80;0.95;;;;;;;9.36;100.00;101914.25;5070249;28;20060;-30
2021/11/05 05:46:18;;;;;;;8.63;1.08;;;;;;;9.37;100.00;101920.66;5071060;28;20079;-30
2021/11/05 05:48:45;;;;;;;5.60;0.85;;;;;;;9.33;100.00;101920.34;5071539;28;20040;-31
2021/11/05 05:51:15;;;;;;;5.82;0.80;;;;;;;9.31;100.00;101917.00;5071852;28;20054;-31
2021/11/05 05:53:42;;;;;;;6.30;0.85;;;;;;;9.29;100.00;101928.41;5071989;28;20046;-32
2021/11/05 05:56:10;;;;;;;7.25;0.93;;;;;;;9.27;100.00;101929.75;5072097;28;20063;-30
2021/11/05 05:58:39;;;;;;;6.35;0.90;;;;;;;9.25;100.00;101935.59;5073119;28;20140;-32
2021/11/05 06:01:06;;;;;;;5.20;0.80;;;;;;;9.24;100.00;101933.91;5073000;28;20056;-31
2021/11/05 06:03:34;;;;;;;7.97;0.80;;;;;;;9.25;100.00;101943.09;5072020;28;20048;-31
2021/11/05 06:06:02;;;;;;;6.65;0.95;;;;;;;9.24;100.00;101936.69;5071415;28;20055;-31
2021/11/05 06:08:32;;;;;;;8.13;1.35;;;;;;;9.24;100.00;101933.91;5071326;28;20050;-31
2021/11/05 06:10:59;;;;;;;10.02;0.90;;;;;;;9.23;100.00;101945.31;5072809;28;20033;-31
2021/11/05 06:13:28;;;;;;;12.13;1.10;;;;;;;9.21;100.00;101942.78;5072533;28;20045;-30
2021/11/05 06:15:58;;;;;;;8.73;1.00;;;;;;;9.20;100.00;101949.47;5072332;28;20769;-31
2021/11/05 06:18:26;;;;;;;4.05;0.60;;;;;;;9.20;100.00;101949.47;5072388;28;20388;-33
2021/11/05 06:20:54;;;;;;;5.13;0.82;;;;;;;9.21;100.00;101956.72;5072592;28;20135;-29
2021/11/05 06:23:22;;;;;;;7.03;0.90;;;;;;;9.21;100.00;101956.72;5071750;28;20044;-33
2021/11/05 06:25:51;;;;;;;7.78;1.35;;;;;;;9.23;100.00;101970.38;5072226;28;20532;-31
2021/11/05 06:28:19;;;;;;;9.93;1.40;;;;;;;9.23;100.00;101971.22;5072099;28;20044;-31
2021/11/05 06:30:46;;;;;;;8.98;1.10;;;;;;;9.22;100.00;101975.09;5071571;28;20106;-30
2021/11/05 06:33:14;;;;;;;11.32;1.10;;;;;;;9.20;100.00;101974.53;5072358;28;20461;-33
2021/11/05 06:35:43;;;;;;;4.75;0.77;;;;;;;9.18;100.00;101979.53;5072018;28;20433;-33
2021/11/05 06:38:10;;;;;;;7.10;0.80;;;;;;;9.16;100.00;101987.31;5070854;28;20429;-33
2021/11/05 06:40:38;;;;;;;7.68;0.88;;;;;;;9.14;100.00;101989.53;5071191;28;20070;-31
2021/11/05 06:43:07;;;;;;;7.65;1.08;;;;;;;9.13;100.00;101998.97;5071240;28;20060;-33
2021/11/05 06:45:35;;;;;;;9.07;1.17;;;;;;;9.10;100.00;101999.50;5070295;28;20044;-31
2021/11/05 06:48:03;;;;;;;6.30;0.80;;;;;;;9.11;100.00;102003.13;5071034;28;20056;-31
2021/11/05 06:50:31;;;;;;;8.68;1.10;;;;;;;9.12;100.00;102002.03;5071926;28;20051;-32
2021/11/05 06:52:59;;;;;;;7.20;0.90;;;;;;;9.13;100.00;102009.28;5071761;28;20051;-30
2021/11/05 06:55:27;;;;;;;7.20;0.98;;;;;;;9.15;100.00;102012.63;5071540;28;20075;-30
2021/11/05 06:57:54;;;;;;;8.77;1.10;;;;;;;9.18;100.00;102017.69;5071381;28;20063;-31
2021/11/05 07:00:24;;;;;;;7.47;1.30;;;;;;;9.22;100.00;102029.97;5071528;28;20040;-32
2021/11/05 07:02:51;;;;;;;9.93;1.08;;;;;;;9.22;100.00;102030.81;5071932;28;20056;-34
2021/11/05 07:05:19;;;;;;;4.68;0.82;;;;;;;9.22;100.00;102038.31;5070906;28;20045;-31
2021/11/05 07:07:47;;;;;;;4.10;0.82;;;;;;;9.22;100.00;102039.16;5071859;28;20116;-32
2021/11/05 07:10:15;;;;;;;6.22;0.75;;;;;;;9.22;100.00;102047.50;5071353;28;20053;-32
2021/11/05 07:12:43;;;;;;;6.50;0.80;;;;;;;9.25;100.00;102047.00;5070704;28;20045;-31
2021/11/05 07:15:11;;;;;;;8.77;0.80;;;;;;;9.27;100.00;102050.38;5071634;28;20056;-31
2021/11/05 07:17:41;;;;;;;8.48;0.77;;;;;;;9.31;100.00;102054.31;5071502;28;20044;-30
2021/11/05 07:20:09;;;;;;;7.32;0.90;;;;;;;9.35;100.00;102051.84;5069667;28;20075;-31
2021/11/05 07:22:37;;;;;;;6.97;0.73;;;;;;;9.43;100.00;102056.09;5071194;28;20051;-31
2021/11/05 07:25:06;;;;;;;6.18;0.68;;;;;;;9.48;100.00;102065.34;5071222;28;20044;-33
2021/11/05 07:27:34;;;;;;;8.23;1.00;;;;;;;9.51;100.00;102075.13;5068255;28;20457;-33
2021/11/05 07:30:02;;;;;;;6.07;1.00;;;;;;;9.56;100.00;102075.19;5057336;28;20055;-31
2021/11/05 07:32:29;;;;;;;5.80;0.77;;;;;;;9.62;100.00;102085.28;5070416;28;20052;-31
2021/11/05 07:34:58;;;;;;;9.68;0.80;;;;;;;9.65;100.00;102081.97;5070310;28;20056;-31
2021/11/05 07:37:26;;;;;;;4.88;0.90;;;;;;;9.71;100.00;102092.06;5070469;28;20056;-30
2021/11/05 07:39:54;;;;;;;4.43;0.70;;;;;;;9.79;100.00;102096.34;5070728;28;20048;-31
2021/11/05 07:42:22;;;;;;;5.63;1.10;;;;;;;9.85;100.00;102098.91;5069443;28;20056;-30
2021/11/05 07:44:50;;;;;;;7.22;1.20;;;;;;;9.92;100.00;102107.06;5070295;28;20048;-31
2021/11/05 07:47:22;;;;;;;7.80;0.82;;;;;;;9.98;100.00;102109.63;5068545;28;20051;-31
2021/11/05 07:49:51;;;;;;;7.90;1.23;;;;;;;10.05;100.00;102114.13;5070874;28;20048;-31
2021/11/05 07:52:20;;;;;;;3.88;0.50;;;;;;;10.08;100.00;102113.59;5069773;28;20044;-30
2021/11/05 07:54:50;;;;;;;4.28;0.50;;;;;;;10.11;100.00;102122.28;5069816;28;20444;-30
2021/11/05 07:57:23;;;;;;;3.67;0.52;;;;;;;10.14;100.00;102120.91;5069816;28;20378;-32
2021/11/05 07:59:51;;;;;;;4.30;0.60;;;;;;;10.18;100.00;102128.50;5070478;28;20433;-31
2021/11/05 08:02:18;;;;;;;5.60;0.90;;;;;;;10.25;100.00;102125.50;5069189;28;20033;-31
2021/11/05 08:04:46;;;;;;;7.13;0.75;;;;;;;10.35;100.00;102133.97;5070247;28;20052;-31
2021/11/05 08:07:14;;;;;;;3.25;0.47;;;;;;;10.43;100.00;102133.47;5069917;28;20123;-32
2021/11/05 08:09:45;;;;;;;1.58;0.38;;;;;;;10.52;100.00;102140.25;5069997;28;20040;-31
2021/11/05 08:12:13;;;;;;;5.93;0.60;;;;;;;10.57;100.00;102147.81;5069800;28;20045;-30
2021/11/05 08:14:41;;;;;;;5.53;0.70;;;;;;;10.60;100.00;102153.69;5064262;28;20056;-32
2021/11/05 08:17:09;;;;;;;4.35;0.70;;;;;;;10.74;100.00;102154.06;5068453;28;20142;-33
2021/11/05 08:19:36;;;;;;;3.80;0.50;;;;;;;11.04;100.00;102165.44;5068749;28;20053;-31
2021/11/05 08:22:05;;;;;;;3.10;0.40;;;;;;;11.41;100.00;102161.69;5069739;28;20060;-33
2021/11/05 08:24:33;;;;;;;5.43;0.60;;;;;;;11.73;100.00;102165.19;5069383;28;20062;-33
2021/11/05 08:27:02;;;;;;;5.07;0.50;;;;;;;11.97;100.00;102167.50;5069842;28;20048;-33
2021/11/05 08:29:30;;;;;;;5.50;0.73;;;;;;;12.19;100.00;102173.69;5068773;28;20045;-32
2021/11/05 08:31:57;;;;;;;5.65;0.85;;;;;;;12.57;100.00;102183.53;5069697;28;20067;-34
2021/11/05 08:34:25;;;;;;;4.20;0.60;;;;;;;12.98;100.00;102181.53;5070087;28;20064;-31
2021/11/05 08:36:53;;;;;;;3.95;0.50;;;;;;;13.35;99.24;102188.72;5039789;28;20053;-30
2021/11/05 08:39:21;;;;;;;6.35;0.98;;;;;;;13.61;97.09;102190.28;5029759;28;20061;-32
2021/11/05 08:41:49;;;;;;;3.58;0.60;;;;;;;14.02;96.62;102193.72;5030487;28;20090;-31
2021/11/05 08:44:19;;;;;;;4.65;0.68;;;;;;;14.48;93.58;102193.44;5010033;28;20057;-31
2021/11/05 08:46:47;;;;;;;7.78;1.05;;;;;;;14.58;90.25;102206.59;5024051;28;20132;-33
2021/11/05 08:49:17;;;;;;;4.68;0.75;;;;;;;14.39;89.30;102200.78;5029985;28;20065;-33
2021/11/05 08:51:47;;;;;;;6.22;0.70;;;;;;;14.10;89.50;102209.13;5030090;28;20114;-32
2021/11/05 08:54:15;;;;;;;7.72;1.50;;;;;;;13.83;90.23;102222.75;5030190;28;20056;-34
2021/11/05 08:56:44;;;;;;;5.15;0.65;;;;;;;13.56;90.63;102225.97;5028984;28;20045;-32
2021/11/05 08:59:14;;;;;;;3.75;0.70;;;;;;;13.34;91.90;102227.16;5029768;28;20046;-33
2021/11/05 09:01:43;;;;;;;8.27;0.90;;;;;;;13.26;93.04;102232.47;5030233;28;20052;-34
2021/11/05 09:04:12;;;;;;;6.20;0.80;;;;;;;13.20;93.35;102237.25;5029387;28;20503;-36
2021/11/05 09:06:40;;;;;;;4.28;0.60;;;;;;;13.23;93.95;102236.69;5033468;28;20099;-32
2021/11/05 09:09:08;;;;;;;5.32;0.95;;;;;;;13.30;94.04;102244.81;5033592;28;20056;-34
2021/11/05 09:11:36;;;;;;;5.97;0.77;;;;;;;13.31;93.70;102244.53;5033473;28;20448;-34
2021/11/05 09:14:03;;;;;;;6.25;0.80;;;;;;;13.25;93.54;102248.47;5032790;28;20052;-33
2021/11/05 09:16:31;;;;;;;3.60;0.65;;;;;;;13.14;93.65;102249.59;5033911;28;20053;-32
2021/11/05 09:19:02;;;;;;;3.97;0.80;;;;;;;13.08;93.84;102261.91;5033288;28;20041;-33
2021/11/05 09:21:31;;;;;;;6.72;0.70;;;;;;;13.00;94.41;102254.06;5032617;28;20052;-30
2021/11/05 09:23:59;;;;;;;3.75;0.68;;;;;;;12.93;94.37;102259.13;5033718;28;20037;-32
2021/11/05 09:26:27;;;;;;;4.30;0.57;;;;;;;12.85;94.69;102263.31;5033090;28;20057;-32
2021/11/05 09:28:55;;;;;;;4.15;0.90;;;;;;;12.78;94.83;102259.97;5032765;28;20049;-32
2021/11/05 09:31:23;;;;;;;5.22;0.75;;;;;;;12.70;95.20;102266.97;5032202;28;20043;-30
2021/11/05 09:33:51;;;;;;;7.32;1.00;;;;;;;12.66;95.63;102271.44;5032298;28;20065;-30
2021/11/05 09:36:20;;;;;;;3.55;0.60;;;;;;;12.61;95.26;102268.63;5032710;28;20056;-32
2021/11/05 09:38:48;;;;;;;4.65;0.60;;;;;;;12.54;94.67;102268.06;5033442;28;20509;-33
2021/11/05 09:41:17;;;;;;;5.18;0.88;;;;;;;12.50;94.32;102277.31;5032745;28;20053;-32
2021/11/05 09:43:45;;;;;;;5.47;1.08;;;;;;;12.43;93.83;102271.97;5033550;28;20041;-34
2021/11/05 09:46:13;;;;;;;6.75;1.38;;;;;;;12.38;93.50;102289.63;5032992;28;20525;-31
2021/11/05 09:48:42;;;;;;;6.20;0.98;;;;;;;12.33;92.99;102291.56;5032903;28;20156;-31
2021/11/05 09:51:11;;;;;;;5.30;1.13;;;;;;;12.28;92.59;102288.72;5033252;28;20053;-31
2021/11/05 09:53:40;;;;;;;6.75;0.90;;;;;;;12.27;92.64;102296.28;5033347;28;20050;-33
2021/11/05 09:56:13;;;;;;;4.35;0.85;;;;;;;12.31;92.21;102300.22;5033036;28;20052;-33
2021/11/05 09:58:42;;;;;;;6.97;0.77;;;;;;;12.62;92.35;102300.28;5022439;28;20045;-34
2021/11/05 10:01:11;;;;;;;5.88;0.90;;;;;;;13.06;90.80;102309.84;5032321;28;20045;-34
2021/11/05 10:03:40;;;;;;;4.18;0.60;;;;;;;13.38;88.53;102312.38;5033366;28;20045;-32
2021/11/05 10:06:08;;;;;;;6.38;0.60;;;;;;;13.50;86.70;102316.84;5032945;28;20415;-33
2021/11/05 10:08:37;;;;;;;2.00;0.40;;;;;;;13.66;86.29;102315.66;5032678;28;20050;-33
2021/11/05 10:11:23;;;;;;;2.72;0.60;;;;;;;14.01;84.44;102320.31;5032793;28;20037;-33
2021/11/05 10:13:51;;;;;;;4.68;0.52;;;;;;;14.27;83.24;102323.84;5013684;28;20064;-31
2021/11/05 10:16:20;;;;;;;4.78;0.60;;;;;;;14.61;82.28;102326.78;5024631;28;20387;-32
2021/11/05 10:18:55;;;;;;;4.03;0.73;;;;;;;14.97;80.56;102333.00;5032911;28;20410;-37
2021/11/05 10:21:23;;;;;;;5.22;0.57;;;;;;;14.98;78.88;102334.69;5032962;28;20054;-32
2021/11/05 10:23:51;;;;;;;6.43;0.68;;;;;;;14.85;78.71;102329.72;5031783;28;20042;-30
2021/11/05 10:26:23;;;;;;;3.83;0.60;;;;;;;14.62;78.16;102336.88;5032498;28;20045;-31
2021/11/05 10:28:51;;;;;;;4.43;0.65;;;;;;;14.56;79.34;102344.53;5031884;28;20055;-31
2021/11/05 10:31:25;;;;;;;4.32;0.63;;;;;;;14.67;79.12;102337.69;5032235;28;20541;-33
2021/11/05 10:33:54;;;;;;;4.57;0.60;;;;;;;14.89;79.36;102342.91;5032425;28;20476;-33
2021/11/05 10:36:23;;;;;;;4.80;0.70;;;;;;;15.19;78.22;102336.16;5031641;28;20164;-31
2021/11/05 10:38:53;;;;;;;3.42;0.73;;;;;;;15.46;77.69;102339.31;5032248;28;20056;-32
2021/11/05 10:41:25;;;;;;;3.47;0.65;;;;;;;15.73;75.90;102347.25;5032115;28;20486;-36
2021/11/05 10:43:55;;;;;;;3.22;0.60;;;;;;;15.92;74.91;102344.50;5031778;28;20418;-31
2021/11/05 10:46:27;;;;;;;4.40;0.70;;;;;;;16.06;73.80;102353.88;5032138;28;20392;-32
2021/11/05 10:48:58;;;;;;;6.20;0.93;;;;;;;16.18;72.78;102348.69;5025906;28;20450;-31
2021/11/05 10:51:28;;;;;;;4.60;0.70;;;;;;;16.33;72.50;102350.47;5031669;28;20033;-33
2021/11/05 10:53:57;;;;;;;5.10;0.60;;;;;;;16.40;70.88;102356.53;5032212;28;20037;-32
2021/11/05 10:56:29;;;;;;;4.43;0.57;;;;;;;16.29;70.42;102360.66;5031756;28;20057;-31
2021/11/05 10:58:59;;;;;;;6.15;0.82;;;;;;;16.17;70.45;102358.28;5031483;28;20041;-32
2021/11/05 11:01:34;;;;;;;4.22;0.80;;;;;;;15.99;70.70;102355.38;5031970;28;20132;-33
2021/11/05 11:04:04;;;;;;;5.30;0.68;;;;;;;15.72;70.81;102361.59;5028680;28;20395;-32
2021/11/05 11:06:34;;;;;;;2.30;0.40;;;;;;;15.45;71.14;102362.94;5032200;28;20102;-34
2021/11/05 11:09:06;;;;;;;3.85;0.40;;;;;;;15.18;71.30;102362.66;5031627;28;20410;-32
2021/11/05 11:11:37;;;;;;;3.47;0.40;;;;;;;15.02;72.14;102366.69;5031512;28;20068;-32
2021/11/05 11:14:07;;;;;;;6.57;0.60;;;;;;;14.96;72.57;102370.69;5031095;28;20050;-32
2021/11/05 11:16:36;;;;;;;4.57;0.80;;;;;;;15.05;72.44;102368.91;5031724;28;20050;-31
2021/11/05 11:19:06;;;;;;;4.65;0.88;;;;;;;15.21;72.72;102372.44;5030672;28;20041;-35
2021/11/05 11:21:36;;;;;;;2.85;0.50;;;;;;;15.27;71.89;102365.66;5031826;28;20144;-33
2021/11/05 11:24:05;;;;;;;6.00;0.98;;;;;;;15.26;71.11;102370.44;5031139;28;20092;-32
2021/11/05 11:26:35;;;;;;;2.97;0.57;;;;;;;15.10;70.48;102378.16;5031027;28;20049;-31
2021/11/05 11:29:05;;;;;;;4.38;0.68;;;;;;;14.94;70.34;102367.31;5031303;28;20503;-31